createdAt,value
2017-09-09T00:00:58.231Z,50.05
2017-09-09T00:03:25.998Z,49.49
2017-09-09T00:05:53.518Z,49.43
2017-09-09T00:08:21.135Z,49.27
2017-09-09T00:10:48.640Z,49.37
2017-09-09T00:13:16.174Z,49.33
2017-09-09T00:15:43.712Z,50.07
2017-09-09T00:18:11.214Z,50.52
2017-09-09T00:20:39.034Z,50.36
2017-09-09T00:23:06.683Z,50.62
2017-09-09T00:25:34.251Z,50.27
2017-09-09T00:28:01.950Z,49.99
2017-09-09T00:30:29.522Z,50.01
2017-09-09T00:32:57.263Z,50.48
2017-09-09T00:35:24.772Z,50.23
2017-09-09T00:37:52.326Z,50.26
2017-09-09T00:40:20.085Z,50.31
2017-09-09T00:42:47.641Z,50.42
2017-09-09T00:45:15.202Z,50.48
2017-09-09T00:47:42.722Z,50.68
2017-09-09T00:50:10.264Z,50.70
2017-09-09T00:52:37.831Z,51.16
2017-09-09T00:55:05.413Z,51.40
2017-09-09T00:57:32.973Z,51.58
2017-09-09T01:00:00.509Z,51.36
2017-09-09T01:02:28.052Z,51.54
2017-09-09T01:04:57.232Z,51.79
2017-09-09T01:07:24.850Z,51.83
2017-09-09T01:09:52.433Z,51.75
2017-09-09T01:12:19.981Z,52.16
2017-09-09T01:14:47.815Z,52.13
2017-09-09T01:17:15.418Z,52.22
2017-09-09T01:19:42.984Z,52.40
2017-09-09T01:22:10.554Z,52.46
2017-09-09T01:24:38.174Z,52.50
2017-09-09T01:27:05.725Z,52.51
2017-09-09T01:29:33.286Z,52.41
2017-09-09T01:32:00.888Z,52.61
2017-09-09T01:34:28.468Z,53.12
2017-09-09T01:36:56.063Z,53.24
2017-09-09T01:39:23.617Z,53.31
2017-09-09T01:41:51.130Z,53.51
2017-09-09T01:44:18.638Z,53.38
2017-09-09T01:46:46.219Z,53.59
2017-09-09T01:49:13.777Z,52.82
2017-09-09T01:51:41.311Z,53.54
2017-09-09T01:54:09.097Z,53.77
2017-09-09T01:56:37.533Z,53.91
2017-09-09T01:59:05.062Z,54.41
2017-09-09T02:01:32.621Z,54.51
2017-09-09T02:04:00.160Z,54.23
2017-09-09T02:06:27.719Z,54.42
2017-09-09T02:08:55.354Z,54.53
2017-09-09T02:11:22.875Z,54.59
2017-09-09T02:13:50.409Z,54.55
2017-09-09T02:16:18.020Z,54.83
2017-09-09T02:18:45.585Z,54.46
2017-09-09T02:21:13.162Z,54.92
2017-09-09T02:23:40.737Z,55.08
2017-09-09T02:26:08.534Z,54.69
2017-09-09T02:28:36.051Z,54.94
2017-09-09T02:31:03.659Z,55.41
2017-09-09T02:33:31.185Z,55.40
2017-09-09T02:35:58.743Z,55.14
2017-09-09T02:38:26.349Z,55.46
2017-09-09T02:40:53.909Z,55.97
2017-09-09T02:43:21.434Z,56.38
2017-09-09T02:45:49.017Z,55.65
2017-09-09T02:48:16.529Z,55.75
2017-09-09T02:50:44.061Z,55.89
2017-09-09T02:53:11.625Z,55.69
2017-09-09T02:55:39.162Z,56.19
2017-09-09T02:58:06.693Z,56.20
2017-09-09T03:00:34.257Z,56.39
2017-09-09T03:03:01.863Z,56.34
2017-09-09T03:05:29.397Z,56.46
2017-09-09T03:07:56.958Z,56.28
2017-09-09T03:10:24.486Z,56.52
2017-09-09T03:12:52.225Z,56.15
2017-09-09T03:15:19.799Z,56.52
2017-09-09T03:17:47.546Z,56.38
2017-09-09T03:20:15.064Z,55.75
2017-09-09T03:22:42.616Z,56.10
2017-09-09T03:25:10.174Z,56.41
2017-09-09T03:27:37.702Z,56.32
2017-09-09T03:30:06.617Z,56.36
2017-09-09T03:32:34.272Z,56.46
2017-09-09T03:35:02.824Z,56.02
2017-09-09T03:37:30.441Z,55.75
2017-09-09T03:39:57.954Z,56.44
2017-09-09T03:42:25.480Z,56.67
2017-09-09T03:44:53.025Z,56.84
2017-09-09T03:47:20.785Z,57.18
2017-09-09T03:49:48.301Z,56.93
2017-09-09T03:52:15.863Z,56.22
2017-09-09T03:54:43.984Z,56.30
2017-09-09T03:57:11.517Z,57.38
2017-09-09T03:59:39.117Z,56.88
2017-09-09T04:02:06.699Z,56.73
2017-09-09T04:04:34.233Z,56.84
2017-09-09T04:07:01.754Z,55.65
2017-09-09T04:09:29.528Z,55.59
2017-09-09T04:11:57.057Z,55.79
2017-09-09T04:14:24.597Z,55.79
2017-09-09T04:16:52.151Z,55.96
2017-09-09T04:19:19.936Z,55.81
2017-09-09T04:21:47.469Z,55.34
2017-09-09T04:24:15.395Z,55.35
2017-09-09T04:26:42.926Z,54.91
2017-09-09T04:29:10.465Z,55.28
2017-09-09T04:31:38.069Z,54.28
2017-09-09T04:34:05.630Z,53.36
2017-09-09T04:36:33.199Z,51.87
2017-09-09T04:39:00.810Z,51.55
2017-09-09T04:41:28.378Z,50.45
2017-09-09T04:43:56.136Z,48.61
2017-09-09T04:46:23.713Z,48.08
2017-09-09T04:48:51.235Z,49.72
2017-09-09T04:51:18.758Z,49.44
2017-09-09T04:53:46.290Z,48.14
2017-09-09T04:56:13.869Z,48.50
2017-09-09T04:58:41.362Z,48.75
2017-09-09T05:01:08.886Z,49.10
2017-09-09T05:03:36.370Z,48.04
2017-09-09T05:06:03.862Z,47.22
2017-09-09T05:08:31.615Z,45.98
2017-09-09T05:10:59.102Z,45.86
2017-09-09T05:13:26.650Z,45.50
2017-09-09T05:15:54.383Z,45.36
2017-09-09T05:18:21.858Z,45.96
2017-09-09T05:20:49.345Z,45.13
2017-09-09T05:23:16.882Z,44.73
2017-09-09T05:25:44.389Z,46.11
2017-09-09T05:28:11.884Z,47.72
2017-09-09T05:30:39.443Z,47.30
2017-09-09T05:33:07.304Z,48.13
2017-09-09T05:35:34.823Z,48.08
2017-09-09T05:38:02.390Z,48.61
2017-09-09T05:40:29.890Z,49.61
2017-09-09T05:42:57.382Z,50.11
2017-09-09T05:45:24.906Z,49.94
2017-09-09T05:47:52.414Z,51.00
2017-09-09T05:50:19.919Z,50.60
2017-09-09T05:52:47.478Z,50.25
2017-09-09T05:55:14.980Z,49.98
2017-09-09T05:57:42.514Z,50.82
2017-09-09T06:00:10.183Z,50.70
2017-09-09T06:02:37.676Z,49.74
2017-09-09T06:05:05.492Z,49.96
2017-09-09T06:07:33.035Z,49.84
2017-09-09T06:10:00.527Z,49.85
2017-09-09T06:12:28.250Z,49.53
2017-09-09T06:14:56.058Z,49.07
2017-09-09T06:17:23.596Z,48.53
2017-09-09T06:19:51.138Z,48.32
2017-09-09T06:22:18.681Z,47.84
2017-09-09T06:24:46.194Z,47.16
2017-09-09T06:27:13.686Z,47.05
2017-09-09T06:29:41.239Z,47.27
2017-09-09T06:32:08.770Z,47.07
2017-09-09T06:34:36.275Z,46.93
2017-09-09T06:37:03.757Z,45.19
2017-09-09T06:39:31.333Z,44.57
2017-09-09T06:41:59.253Z,45.08
2017-09-09T06:44:26.966Z,44.42
2017-09-09T06:46:54.504Z,43.89
2017-09-09T06:49:21.995Z,43.76
2017-09-09T06:51:49.495Z,43.68
2017-09-09T06:54:17.039Z,42.91
2017-09-09T06:56:44.746Z,42.54
2017-09-09T06:59:12.227Z,41.94
2017-09-09T07:01:40.119Z,40.87
2017-09-09T07:04:07.871Z,39.14
2017-09-09T07:06:35.384Z,38.23
2017-09-09T07:09:02.962Z,38.56
2017-09-09T07:11:30.485Z,37.08
2017-09-09T07:13:58.021Z,37.41
2017-09-09T07:16:25.613Z,35.96
2017-09-09T07:18:53.155Z,35.98
2017-09-09T07:21:20.679Z,35.16
2017-09-09T07:23:48.304Z,35.76
2017-09-09T07:26:15.851Z,35.17
2017-09-09T07:28:43.409Z,33.24
2017-09-09T07:31:10.990Z,33.91
2017-09-09T07:33:38.510Z,33.73
2017-09-09T07:36:06.049Z,35.55
2017-09-09T07:38:33.655Z,35.85
2017-09-09T07:41:01.186Z,36.69
2017-09-09T07:43:28.725Z,36.44
2017-09-09T07:45:56.298Z,36.08
2017-09-09T07:48:23.834Z,36.04
2017-09-09T07:50:51.356Z,36.60
2017-09-09T07:53:18.928Z,37.38
2017-09-09T07:55:46.461Z,37.40
2017-09-09T07:58:13.995Z,37.80
2017-09-09T08:00:41.587Z,37.82
2017-09-09T08:03:09.122Z,36.88
2017-09-09T08:05:36.812Z,36.37
2017-09-09T08:08:04.419Z,35.68
2017-09-09T08:10:32.206Z,35.14
2017-09-09T08:12:59.762Z,34.35
2017-09-09T08:15:27.344Z,33.33
2017-09-09T08:17:55.086Z,32.47
2017-09-09T08:20:22.608Z,32.95
2017-09-09T08:22:50.243Z,33.01
2017-09-09T08:25:17.830Z,32.84
2017-09-09T08:27:45.350Z,33.88
2017-09-09T08:30:13.002Z,33.06
2017-09-09T08:32:40.525Z,33.44
2017-09-09T08:35:08.067Z,32.84
2017-09-09T08:37:35.789Z,33.49
2017-09-09T08:40:03.322Z,34.16
2017-09-09T08:42:30.858Z,34.25
2017-09-09T08:44:58.417Z,33.70
2017-09-09T08:47:25.946Z,33.15
2017-09-09T08:49:53.508Z,32.63
2017-09-09T08:52:21.098Z,32.23
2017-09-09T08:54:48.847Z,31.32
2017-09-09T08:57:16.370Z,29.90
2017-09-09T08:59:43.954Z,30.59
2017-09-09T09:02:11.512Z,28.94
2017-09-09T09:04:39.062Z,28.54
2017-09-09T09:07:06.571Z,28.76
2017-09-09T09:09:34.108Z,28.43
2017-09-09T09:12:01.618Z,27.70
2017-09-09T09:14:29.147Z,27.74
2017-09-09T09:16:56.707Z,28.04
2017-09-09T09:19:24.460Z,28.57
2017-09-09T09:21:52.089Z,28.72
2017-09-09T09:24:19.795Z,27.99
2017-09-09T09:26:47.427Z,27.87
2017-09-09T09:29:14.950Z,26.75
2017-09-09T09:31:42.484Z,26.08
2017-09-09T09:34:10.461Z,26.09
2017-09-09T09:36:37.983Z,27.45
2017-09-09T09:39:05.551Z,27.73
2017-09-09T09:41:33.068Z,28.17
2017-09-09T09:44:00.592Z,28.74
2017-09-09T09:46:28.135Z,29.14
2017-09-09T09:48:55.908Z,29.45
2017-09-09T09:51:23.429Z,29.20
2017-09-09T09:53:51.008Z,28.89
2017-09-09T09:56:18.573Z,27.94
2017-09-09T09:58:46.189Z,27.78
2017-09-09T10:01:13.788Z,27.47
2017-09-09T10:03:41.513Z,27.65
2017-09-09T10:06:09.033Z,27.76
2017-09-09T10:08:36.603Z,28.26
2017-09-09T10:11:05.768Z,28.01
2017-09-09T10:13:33.390Z,27.37
2017-09-09T10:16:00.977Z,26.97
2017-09-09T10:18:28.513Z,27.31
2017-09-09T10:20:56.067Z,27.08
2017-09-09T10:23:23.648Z,26.85
2017-09-09T10:25:51.804Z,26.65
2017-09-09T10:28:19.356Z,26.72
2017-09-09T10:30:47.146Z,28.30
2017-09-09T10:33:14.706Z,28.75
2017-09-09T10:35:42.205Z,29.07
2017-09-09T10:38:09.788Z,28.69
2017-09-09T10:40:37.316Z,29.19
2017-09-09T10:43:04.846Z,28.63
2017-09-09T10:45:32.418Z,28.32
2017-09-09T10:47:59.957Z,27.84
2017-09-09T10:50:27.698Z,27.53
2017-09-09T10:52:55.302Z,28.50
2017-09-09T10:55:22.825Z,29.07
2017-09-09T10:57:50.376Z,28.17
2017-09-09T11:00:18.039Z,28.24
2017-09-09T11:02:45.562Z,28.61
2017-09-09T11:05:13.111Z,28.25
2017-09-09T11:07:40.661Z,29.02
2017-09-09T11:10:08.226Z,29.22
2017-09-09T11:12:35.767Z,27.71
2017-09-09T11:15:03.350Z,26.70
2017-09-09T11:17:30.910Z,27.63
2017-09-09T11:19:58.409Z,27.80
2017-09-09T11:22:26.017Z,27.95
2017-09-09T11:24:53.547Z,27.76
2017-09-09T11:27:21.304Z,28.22
2017-09-09T11:29:49.085Z,29.07
2017-09-09T11:32:16.667Z,29.37
2017-09-09T11:34:44.200Z,29.63
2017-09-09T11:37:11.770Z,29.61
2017-09-09T11:39:39.345Z,29.96
2017-09-09T11:42:07.122Z,30.03
2017-09-09T11:44:35.478Z,30.59
2017-09-09T11:47:03.097Z,30.30
2017-09-09T11:49:30.689Z,30.39
2017-09-09T11:51:58.207Z,30.80
2017-09-09T11:54:25.783Z,31.43
2017-09-09T11:56:53.328Z,30.61
2017-09-09T11:59:20.883Z,31.36
2017-09-09T12:01:48.442Z,30.95
2017-09-09T12:04:16.181Z,30.93
2017-09-09T12:06:43.924Z,31.64
2017-09-09T12:09:11.529Z,31.49
2017-09-09T12:11:40.989Z,31.61
2017-09-09T12:14:08.568Z,31.94
2017-09-09T12:16:36.465Z,33.19
2017-09-09T12:19:04.033Z,33.76
2017-09-09T12:21:31.617Z,33.80
2017-09-09T12:23:59.169Z,34.25
2017-09-09T12:26:26.730Z,34.76
2017-09-09T12:28:54.262Z,35.27
2017-09-09T12:31:21.818Z,35.40
2017-09-09T12:33:49.366Z,35.77
2017-09-09T12:36:16.917Z,35.99
2017-09-09T12:38:44.469Z,35.96
2017-09-09T12:41:11.987Z,36.69
2017-09-09T12:43:39.756Z,37.05
2017-09-09T12:46:07.348Z,37.41
2017-09-09T12:48:34.861Z,37.73
2017-09-09T12:51:02.616Z,38.04
2017-09-09T12:53:30.297Z,37.75
2017-09-09T12:55:57.839Z,38.12
2017-09-09T12:58:25.413Z,37.96
2017-09-09T13:00:53.128Z,37.63
2017-09-09T13:03:20.784Z,36.90
2017-09-09T13:05:48.609Z,36.65
2017-09-09T13:08:16.206Z,35.20
2017-09-09T13:10:43.717Z,34.39
2017-09-09T13:13:11.467Z,34.58
2017-09-09T13:15:39.022Z,35.13
2017-09-09T13:18:06.582Z,35.39
2017-09-09T13:20:34.138Z,35.27
2017-09-09T13:23:01.698Z,33.84
2017-09-09T13:25:29.443Z,33.32
2017-09-09T13:27:57.001Z,32.63
2017-09-09T13:30:24.600Z,31.05
2017-09-09T13:32:52.130Z,30.75
2017-09-09T13:35:19.637Z,30.42
2017-09-09T13:37:47.234Z,30.69
2017-09-09T13:40:14.769Z,31.10
2017-09-09T13:42:42.416Z,34.15
2017-09-09T13:45:09.980Z,35.99
2017-09-09T13:47:37.497Z,36.66
2017-09-09T13:50:05.038Z,37.10
2017-09-09T13:52:32.649Z,37.23
2017-09-09T13:55:00.995Z,37.42
2017-09-09T13:57:28.568Z,37.33
2017-09-09T13:59:56.420Z,37.77
2017-09-09T14:02:25.555Z,37.35
2017-09-09T14:04:54.824Z,37.53
2017-09-09T14:07:22.369Z,36.74
2017-09-09T14:09:49.914Z,37.00
2017-09-09T14:12:17.497Z,36.47
2017-09-09T14:14:45.098Z,36.14
2017-09-09T14:17:12.665Z,34.78
2017-09-09T14:19:40.251Z,34.80
2017-09-09T14:22:07.805Z,34.47
2017-09-09T14:24:35.365Z,34.03
2017-09-09T14:27:02.914Z,34.59
2017-09-09T14:29:30.466Z,34.19
2017-09-09T14:31:58.026Z,35.12
2017-09-09T14:34:25.645Z,35.50
2017-09-09T14:36:53.348Z,36.42
2017-09-09T14:39:20.947Z,36.58
2017-09-09T14:41:48.474Z,36.81
2017-09-09T14:44:16.037Z,37.32
2017-09-09T14:46:43.610Z,36.97
2017-09-09T14:49:11.201Z,37.33
2017-09-09T14:51:38.860Z,37.72
2017-09-09T14:54:06.455Z,38.67
2017-09-09T14:56:34.114Z,40.77
2017-09-09T14:59:01.855Z,41.74
2017-09-09T15:01:29.426Z,41.89
2017-09-09T15:03:57.276Z,41.80
2017-09-09T15:06:24.864Z,42.26
2017-09-09T15:08:52.443Z,41.27
2017-09-09T15:11:19.949Z,41.06
2017-09-09T15:13:47.488Z,40.59
2017-09-09T15:16:15.075Z,40.45
2017-09-09T15:18:42.595Z,40.67
2017-09-09T15:21:10.349Z,40.71
2017-09-09T15:23:37.926Z,40.26
2017-09-09T15:26:05.448Z,40.04
2017-09-09T15:28:32.991Z,40.20
2017-09-09T15:31:00.889Z,40.47
2017-09-09T15:33:28.436Z,40.74
2017-09-09T15:35:55.985Z,41.36
2017-09-09T15:38:23.580Z,41.86
2017-09-09T15:40:51.137Z,41.60
2017-09-09T15:43:18.697Z,42.30
2017-09-09T15:45:46.286Z,43.46
2017-09-09T15:48:13.821Z,44.76
2017-09-09T15:50:41.352Z,45.27
2017-09-09T15:53:08.927Z,45.39
2017-09-09T15:55:36.467Z,45.61
2017-09-09T15:58:04.106Z,45.86
2017-09-09T16:00:31.738Z,45.98
2017-09-09T16:02:59.536Z,46.01
2017-09-09T16:05:27.171Z,46.58
2017-09-09T16:07:54.805Z,46.40
2017-09-09T16:10:22.376Z,46.81
2017-09-09T16:12:50.082Z,47.34
2017-09-09T16:15:17.701Z,47.75
2017-09-09T16:17:45.296Z,47.66
2017-09-09T16:20:12.845Z,47.68
2017-09-09T16:22:40.422Z,47.67
2017-09-09T16:25:07.935Z,46.51
2017-09-09T16:27:35.506Z,44.97
2017-09-09T16:30:06.507Z,45.23
2017-09-09T16:32:34.246Z,45.72
2017-09-09T16:35:01.785Z,46.79
2017-09-09T16:37:29.388Z,47.21
2017-09-09T16:39:56.967Z,47.46
2017-09-09T16:42:24.474Z,48.05
2017-09-09T16:44:52.035Z,48.44
2017-09-09T16:47:19.547Z,48.88
2017-09-09T16:49:48.009Z,49.23
2017-09-09T16:52:15.588Z,49.24
2017-09-09T16:54:43.106Z,49.26
2017-09-09T16:57:10.614Z,49.67
2017-09-09T16:59:38.195Z,49.86
2017-09-09T17:02:05.744Z,50.42
2017-09-09T17:04:33.263Z,52.77
2017-09-09T17:07:01.020Z,54.22
2017-09-09T17:09:28.581Z,55.29
2017-09-09T17:11:56.350Z,56.68
2017-09-09T17:14:24.606Z,57.10
2017-09-09T17:16:52.178Z,57.28
2017-09-09T17:19:19.703Z,58.21
2017-09-09T17:21:48.697Z,59.67
2017-09-09T17:24:16.358Z,60.27
2017-09-09T17:26:43.915Z,60.63
2017-09-09T17:29:11.452Z,59.75
2017-09-09T17:31:39.042Z,59.74
2017-09-09T17:34:06.563Z,59.69
2017-09-09T17:36:34.077Z,59.94
2017-09-09T17:39:01.636Z,59.84
2017-09-09T17:41:29.172Z,60.13
2017-09-09T17:43:56.783Z,60.14
2017-09-09T17:46:24.351Z,60.54
2017-09-09T17:48:51.860Z,60.86
2017-09-09T17:51:19.620Z,60.11
2017-09-09T17:53:47.165Z,59.57
2017-09-09T17:56:14.664Z,60.15
2017-09-09T17:58:42.226Z,59.80
2017-09-09T18:01:09.895Z,60.51
2017-09-09T18:03:37.414Z,60.60
2017-09-09T18:06:04.937Z,60.36
2017-09-09T18:08:32.485Z,60.45
2017-09-09T18:11:00.015Z,60.17
2017-09-09T18:13:27.559Z,60.11
2017-09-09T18:15:55.127Z,60.33
2017-09-09T18:18:22.885Z,60.26
2017-09-09T18:20:50.634Z,60.15
2017-09-09T18:23:18.177Z,60.38
2017-09-09T18:25:49.861Z,59.68
2017-09-09T18:28:18.810Z,59.21
2017-09-09T18:30:46.382Z,59.16
2017-09-09T18:33:13.947Z,60.04
2017-09-09T18:35:48.646Z,59.58
2017-09-09T18:38:17.359Z,58.89
2017-09-09T18:40:44.869Z,59.19
2017-09-09T18:43:12.413Z,59.02
2017-09-09T18:45:40.003Z,59.60
2017-09-09T18:48:07.530Z,59.78
2017-09-09T18:50:35.269Z,59.46
2017-09-09T18:53:02.878Z,59.50
2017-09-09T18:55:30.396Z,59.98
2017-09-09T18:57:57.986Z,60.21
2017-09-09T19:00:25.940Z,60.74
2017-09-09T19:02:53.561Z,60.10
2017-09-09T19:05:21.190Z,59.56
2017-09-09T19:07:48.761Z,59.66
2017-09-09T19:10:16.780Z,59.68
2017-09-09T19:12:44.299Z,59.00
2017-09-09T19:15:11.903Z,58.58
2017-09-09T19:17:39.690Z,58.01
2017-09-09T19:20:07.229Z,58.38
2017-09-09T19:22:34.915Z,57.84
2017-09-09T19:25:02.493Z,57.75
2017-09-09T19:27:30.047Z,57.19
2017-09-09T19:29:57.645Z,56.69
2017-09-09T19:32:25.231Z,57.13
2017-09-09T19:34:52.766Z,57.13
2017-09-09T19:37:20.367Z,56.94
2017-09-09T19:39:48.023Z,56.11
2017-09-09T19:42:15.786Z,56.40
2017-09-09T19:44:43.354Z,56.40
2017-09-09T19:47:10.948Z,56.47
2017-09-09T19:49:38.476Z,56.53
2017-09-09T19:52:06.259Z,56.61
2017-09-09T19:54:33.891Z,57.17
2017-09-09T19:57:01.446Z,57.52
2017-09-09T19:59:29.207Z,57.57
2017-09-09T20:01:56.819Z,57.57
2017-09-09T20:04:24.427Z,57.39
2017-09-09T20:06:52.200Z,57.67
2017-09-09T20:09:19.947Z,57.32
2017-09-09T20:11:47.650Z,57.42
2017-09-09T20:14:15.265Z,57.75
2017-09-09T20:16:42.853Z,57.99
2017-09-09T20:19:10.414Z,58.88
2017-09-09T20:21:37.961Z,59.48
2017-09-09T20:24:05.662Z,60.14
2017-09-09T20:26:33.485Z,60.00
2017-09-09T20:29:01.081Z,60.27
2017-09-09T20:31:28.717Z,60.29
2017-09-09T20:33:56.266Z,61.89
2017-09-09T20:36:23.831Z,62.01
2017-09-09T20:38:51.467Z,61.74
2017-09-09T20:41:19.064Z,62.14
2017-09-09T20:43:46.644Z,61.96
2017-09-09T20:46:14.298Z,61.40
2017-09-09T20:48:41.910Z,62.03
2017-09-09T20:51:09.516Z,61.96
2017-09-09T20:53:37.129Z,61.99
2017-09-09T20:56:04.975Z,62.35
2017-09-09T20:58:32.566Z,61.97
2017-09-09T21:01:00.397Z,61.82
2017-09-09T21:03:27.990Z,61.74
2017-09-09T21:05:56.176Z,62.02
2017-09-09T21:08:23.792Z,61.76
2017-09-09T21:10:51.321Z,62.42
2017-09-09T21:13:20.275Z,62.15
2017-09-09T21:15:47.860Z,62.87
2017-09-09T21:18:15.619Z,62.52
2017-09-09T21:20:43.419Z,62.02
2017-09-09T21:23:11.054Z,62.08
2017-09-09T21:25:38.686Z,62.28
2017-09-09T21:28:06.298Z,62.13
2017-09-09T21:30:33.894Z,61.92
2017-09-09T21:33:01.688Z,61.62
2017-09-09T21:35:29.734Z,61.73
2017-09-09T21:37:58.087Z,61.79
2017-09-09T21:40:26.055Z,62.54
2017-09-09T21:42:54.568Z,63.52
2017-09-09T21:45:22.752Z,63.34
2017-09-09T21:47:50.593Z,62.85
2017-09-09T21:50:18.164Z,62.45
2017-09-09T21:52:45.761Z,62.64
2017-09-09T21:55:13.386Z,62.35
2017-09-09T21:57:41.176Z,62.27
2017-09-09T22:00:08.991Z,62.69
2017-09-09T22:02:36.810Z,62.62
2017-09-09T22:05:04.622Z,62.32
2017-09-09T22:07:32.215Z,62.30
2017-09-09T22:09:59.726Z,62.57
2017-09-09T22:12:27.358Z,62.36
2017-09-09T22:14:54.972Z,62.29
2017-09-09T22:17:22.549Z,62.48
2017-09-09T22:19:50.119Z,62.71
2017-09-09T22:22:17.705Z,62.98
2017-09-09T22:24:45.245Z,62.13
2017-09-09T22:27:13.039Z,62.53
2017-09-09T22:29:40.633Z,62.45
2017-09-09T22:32:08.256Z,62.31
2017-09-09T22:34:35.786Z,62.62
2017-09-09T22:37:03.369Z,63.11
2017-09-09T22:39:30.939Z,63.53
2017-09-09T22:41:58.448Z,63.94
2017-09-09T22:44:26.015Z,63.57
2017-09-09T22:46:53.640Z,63.28
2017-09-09T22:49:21.228Z,63.17
2017-09-09T22:51:48.789Z,63.37
2017-09-09T22:54:16.387Z,63.40
2017-09-09T22:56:43.924Z,63.17
2017-09-09T22:59:11.482Z,63.21
2017-09-09T23:01:39.085Z,63.54
2017-09-09T23:04:06.665Z,63.36
2017-09-09T23:06:34.485Z,63.41
2017-09-09T23:09:02.077Z,63.18
2017-09-09T23:11:29.667Z,63.79
2017-09-09T23:13:57.277Z,63.84
2017-09-09T23:16:24.904Z,63.84
2017-09-09T23:18:52.453Z,64.24
2017-09-09T23:21:19.997Z,64.39
2017-09-09T23:23:47.620Z,63.86
2017-09-09T23:26:15.155Z,63.58
2017-09-09T23:28:42.677Z,64.33
2017-09-09T23:31:10.256Z,64.12
2017-09-09T23:33:37.870Z,64.52
2017-09-09T23:36:05.400Z,63.71
2017-09-09T23:38:32.996Z,64.16
2017-09-09T23:41:00.578Z,65.34
2017-09-09T23:43:28.186Z,66.99
2017-09-09T23:45:55.768Z,68.01
2017-09-09T23:48:23.311Z,67.05
2017-09-09T23:50:50.838Z,66.76
2017-09-09T23:53:18.392Z,66.76
2017-09-09T23:55:45.917Z,66.38
2017-09-09T23:58:13.422Z,66.87
